Aérodrome :
LOGIN :

S'inscrire | Disclaimer

   EN    FR    IT 

 










Légende :    VFR   VFR Marginal   IFR   IFR Intensif   IFR Très Intensif
Visi : 
Plafond : 
>= 8 km
>= 3000ft
5 à 8 km
1000 à 3000 ft
1500m à 5 km
500 à 1000 ft
800 à 1500m
200 à 500 ft
< 800m
< 200 ft
Symboles :   Orages  Brouillard  Fortes neiges  Fortes précipitations  Vent > 20 kt
SIGMETs :   Divers  Orages  Givrage  Turbulence  Onde Orograph.  Cendres Volcan.






- Altitude de l'aérodrome : 74 ft
- Code IATA : EIN


EHEH - Eindhoven

DERNIER METAR :
  • 221455Z AUTO 11008KT 080V150 9999 OVC230 10/05 Q1002 BLU 14010KT 9999 FEW020 SCT290

METARs EXPIRÉS :
  • 221425Z AUTO 11007KT 080V190 9999 OVC230 10/05 Q1003 BLU 14010KT 9999 FEW020 SCT290
  • 221355Z AUTO 13008KT 100V180 9999 OVC200 11/05 Q1003 BLU 14010KT 9999 FEW020 SCT290
  • 221325Z AUTO 13009KT 120V190 9999 OVC220 11/05 Q1003 BLU 14010KT 9999 FEW020 SCT290
  • 221255Z AUTO 16009KT 120V190 9999 FEW150 OVC240 11/05 Q1003 BLU 14010KT 9999 FEW020 SCT290
  • 221225Z AUTO 16008KT 110V200 9999 OVC280 11/06 Q1003 BLU 14010KT 9999 FEW020 SCT290

TAF TAF EHEH
Valide du 22 à 12h jusqu'au 23 à 18h UTC


221153Z 2212/2318 15009KT 9999 FEW017
BECMG 2214/2216 10010KT
TEMPO 2309/2315 07010G20KT



MET'MAP, la Météo Aéronautique d'un coup d'oeil ! - Copyright ORBIFLY Décembre 2007 - Disclaimer

ORBIFLY MET'MAP TEAM :

Programmation & Développement : Alexandra Zaïnal
Conception & Développement : Baudouin d'Aumeries
Co-Programmation & Développement : Marc-Olivier Méhu
Soutien technique & logistique : Manuel Goepfert

Contact : metmap@orbifly.com




SOURCES & CREDITS :

   NOAA